Time;durP1;ratioP1;P1;durP2;ratioP2;P2;SDS_P1;SDS_P2;PMS_P1;PMS_P2;Temp;Humidity;BMP_temperature;BMP_pressure;BME280_temperature;BME280_humidity;BME280_pressure;Samples;Min_cycle;Max_cycle;Signal;HPM_P1;HPM_P2
2020/12/10 00:01:49;;;;;;;17.80;6.95;;;;;;;-2.63;53.91;101542.64;1706030;83;21195;-59
2020/12/10 00:04:17;;;;;;;12.05;6.08;;;;;;;-2.62;53.99;101541.78;1706360;83;21188;-59
2020/12/10 00:06:45;;;;;;;11.68;5.67;;;;;;;-2.64;54.12;101540.50;1706583;83;21205;-59
2020/12/10 00:09:12;;;;;;;11.65;5.25;;;;;;;-2.65;54.16;101541.80;1706389;82;21236;-59
2020/12/10 00:11:40;;;;;;;12.82;6.75;;;;;;;-2.67;54.26;101534.52;1706124;83;21848;-59
2020/12/10 00:14:07;;;;;;;12.90;6.55;;;;;;;-2.76;54.27;101529.41;1707329;83;21667;-59
2020/12/10 00:16:35;;;;;;;11.78;6.03;;;;;;;-2.82;54.37;101527.30;1705498;83;21478;-59
2020/12/10 00:19:03;;;;;;;16.55;7.33;;;;;;;-2.86;54.38;101519.18;1706387;83;21177;-59
2020/12/10 00:21:31;;;;;;;12.03;5.53;;;;;;;-2.88;54.42;101517.02;1706204;83;21576;-59
2020/12/10 00:23:58;;;;;;;13.18;6.17;;;;;;;-2.90;54.44;101508.45;1706775;83;21208;-57
2020/12/10 00:26:26;;;;;;;12.55;6.28;;;;;;;-2.88;54.39;101505.43;1706214;82;21211;-59
2020/12/10 00:28:53;;;;;;;16.90;6.33;;;;;;;-2.89;54.48;101508.89;1706957;83;21176;-59
2020/12/10 00:31:21;;;;;;;13.58;5.75;;;;;;;-2.91;54.51;101509.75;1706265;83;21213;-59
2020/12/10 00:33:48;;;;;;;19.12;7.22;;;;;;;-2.87;54.49;101508.44;1697565;83;21200;-59
2020/12/10 00:36:16;;;;;;;10.95;5.70;;;;;;;-2.91;54.48;101515.75;1695593;83;21324;-59
2020/12/10 00:38:43;;;;;;;13.10;6.30;;;;;;;-2.93;54.59;101503.31;1696396;82;22004;-59
2020/12/10 00:41:10;;;;;;;9.48;5.22;;;;;;;-2.96;54.66;101505.91;1696334;83;21217;-59
2020/12/10 00:43:38;;;;;;;11.33;5.83;;;;;;;-2.98;54.71;101507.64;1662680;84;21541;-59
2020/12/10 00:46:05;;;;;;;10.45;5.17;;;;;;;-2.97;54.78;101497.78;1660748;85;21560;-59
2020/12/10 00:48:33;;;;;;;13.20;6.33;;;;;;;-2.93;54.74;101499.90;1660918;86;21241;-59
2020/12/10 00:51:02;;;;;;;9.95;5.50;;;;;;;-2.97;54.83;101487.48;1661070;85;21243;-59
2020/12/10 00:53:31;;;;;;;12.75;5.40;;;;;;;-2.95;54.86;101487.47;1661075;85;22580;-59
2020/12/10 00:55:58;;;;;;;9.80;4.20;;;;;;;-2.94;54.80;101490.03;1661086;84;21240;-59
2020/12/10 00:58:26;;;;;;;11.10;5.40;;;;;;;-3.00;54.79;101479.77;1698147;82;21203;-59
2020/12/10 01:00:54;;;;;;;12.73;6.17;;;;;;;-3.02;54.83;101476.34;1695505;83;21494;-59
2020/12/10 01:03:21;;;;;;;15.78;6.37;;;;;;;-3.01;54.87;101476.75;1696450;83;21203;-59
2020/12/10 01:05:49;;;;;;;12.73;5.03;;;;;;;-2.99;54.80;101482.77;1697827;83;21173;-59
2020/12/10 01:08:16;;;;;;;11.03;5.85;;;;;;;-2.96;54.78;101490.89;1697161;84;21844;-59
2020/12/10 01:10:44;;;;;;;11.38;4.72;;;;;;;-2.98;54.74;101493.48;1696836;82;21172;-59
2020/12/10 01:13:11;;;;;;;9.18;5.03;;;;;;;-2.99;54.71;101494.36;1696652;82;21413;-59
2020/12/10 01:15:39;;;;;;;9.48;5.30;;;;;;;-3.01;54.71;101494.78;1696571;82;21711;-59
2020/12/10 01:18:06;;;;;;;13.55;5.00;;;;;;;-3.04;54.75;101502.55;1696538;84;21784;-59
2020/12/10 01:20:34;;;;;;;12.05;6.85;;;;;;;-3.07;54.76;101498.26;1695515;84;21205;-59
2020/12/10 01:23:02;;;;;;;12.93;5.50;;;;;;;-3.08;54.79;101495.69;1695196;82;21215;-59
2020/12/10 01:25:30;;;;;;;14.40;5.53;;;;;;;-3.08;54.80;101490.53;1695476;83;21216;-59
2020/12/10 01:27:57;;;;;;;11.90;5.53;;;;;;;-3.07;54.74;101483.25;1695940;84;21180;-59
2020/12/10 01:30:25;;;;;;;16.62;6.40;;;;;;;-3.07;54.71;101484.54;1695671;84;21203;-59
2020/12/10 01:32:52;;;;;;;14.53;6.30;;;;;;;-3.08;54.70;101484.95;1695340;82;21196;-59
2020/12/10 01:35:20;;;;;;;12.85;6.00;;;;;;;-3.10;54.72;101483.27;1696507;83;21212;-59
2020/12/10 01:37:47;;;;;;;11.55;5.75;;;;;;;-3.13;54.70;101480.25;1695916;83;21667;-59
2020/12/10 01:40:15;;;;;;;10.78;5.95;;;;;;;-3.15;54.65;101470.41;1695042;83;21192;-59
2020/12/10 01:42:42;;;;;;;12.30;5.70;;;;;;;-3.14;54.63;101475.99;1695893;83;21644;-59
2020/12/10 01:45:10;;;;;;;12.25;5.97;;;;;;;-3.17;54.60;101476.00;1694617;82;21196;-59
2020/12/10 01:47:38;;;;;;;11.83;5.35;;;;;;;-3.17;54.61;101479.42;1661795;85;21208;-59
2020/12/10 01:50:05;;;;;;;12.25;5.87;;;;;;;-3.17;54.58;101492.30;1665882;84;21965;-59
2020/12/10 01:52:32;;;;;;;10.75;5.85;;;;;;;-3.21;54.51;101490.62;1660235;86;21231;-60
2020/12/10 01:55:01;;;;;;;9.93;5.05;;;;;;;-3.21;54.60;101489.73;1659667;84;21223;-59
2020/12/10 01:57:29;;;;;;;12.20;5.75;;;;;;;-3.21;54.58;101486.75;1660915;86;21715;-59
2020/12/10 01:59:57;;;;;;;16.67;6.70;;;;;;;-3.22;54.67;101490.18;1659651;85;21200;-59
2020/12/10 02:02:25;;;;;;;14.55;6.40;;;;;;;-3.21;54.74;101484.59;1659343;84;21613;-59
2020/12/10 02:04:53;;;;;;;9.63;5.65;;;;;;;-3.18;54.71;101480.31;1657230;85;21224;-59
2020/12/10 02:07:20;;;;;;;14.83;6.22;;;;;;;-3.21;54.75;101471.31;1661146;84;21207;-59
2020/12/10 02:09:48;;;;;;;13.55;5.30;;;;;;;-3.19;54.96;101480.31;1660715;85;21235;-59
2020/12/10 02:12:15;;;;;;;10.82;5.85;;;;;;;-3.20;54.89;101478.15;1659030;85;21220;-59
2020/12/10 02:14:43;;;;;;;11.12;5.78;;;;;;;-3.21;54.84;101471.72;1659525;85;21502;-59
2020/12/10 02:17:10;;;;;;;11.57;5.10;;;;;;;-3.22;54.89;101473.45;1695930;83;21200;-59
2020/12/10 02:19:38;;;;;;;9.68;4.90;;;;;;;-3.21;54.84;101467.86;1695158;83;21575;-59
2020/12/10 02:22:05;;;;;;;14.18;6.05;;;;;;;-3.22;54.89;101462.30;1695685;83;21247;-60
2020/12/10 02:24:33;;;;;;;13.43;5.75;;;;;;;-3.21;54.84;101462.70;1695464;82;21569;-59
2020/12/10 02:27:00;;;;;;;9.38;5.47;;;;;;;-3.23;54.78;101460.17;1695485;83;21937;-59
2020/12/10 02:29:28;;;;;;;14.78;6.28;;;;;;;-3.21;54.77;101464.00;1696575;83;21192;-58
2020/12/10 02:31:55;;;;;;;12.55;6.08;;;;;;;-3.24;54.76;101453.74;1695393;84;21223;-57
2020/12/10 02:34:23;;;;;;;11.38;5.80;;;;;;;-3.26;54.86;101443.45;1696070;83;21172;-57
2020/12/10 02:36:51;;;;;;;12.23;6.42;;;;;;;-3.25;54.94;101441.72;1695598;83;21168;-57
2020/12/10 02:39:20;;;;;;;17.40;4.92;;;;;;;-3.24;55.00;101444.73;1695525;83;22317;-57
2020/12/10 02:41:47;;;;;;;12.33;5.80;;;;;;;-3.21;54.93;101438.25;1694982;82;21196;-57
2020/12/10 02:44:15;;;;;;;14.85;5.78;;;;;;;-3.21;54.87;101439.54;1695192;83;21184;-57
2020/12/10 02:46:43;;;;;;;13.43;6.15;;;;;;;-3.20;54.87;101443.84;1696382;83;21200;-58
2020/12/10 02:49:11;;;;;;;9.95;5.62;;;;;;;-3.20;54.80;101436.11;1696447;84;21188;-58
2020/12/10 02:51:43;;;;;;;12.98;5.85;;;;;;;-3.20;54.77;101429.67;1695861;84;21352;-58
2020/12/10 02:54:11;;;;;;;11.15;5.60;;;;;;;-3.23;54.92;101429.28;1695361;82;22246;-57
2020/12/10 02:56:38;;;;;;;23.05;5.72;;;;;;;-3.26;54.98;101436.14;1696202;83;21193;-59
2020/12/10 02:59:06;;;;;;;12.13;5.35;;;;;;;-3.28;55.02;101432.28;1696532;82;21711;-57
2020/12/10 03:01:35;;;;;;;12.95;5.62;;;;;;;-3.29;55.05;101425.89;1695471;83;21200;-58
2020/12/10 03:04:04;;;;;;;10.80;6.08;;;;;;;-3.30;55.07;101430.16;1694400;83;21383;-58
2020/12/10 03:06:31;;;;;;;11.60;5.55;;;;;;;-3.27;55.10;101434.01;1694796;84;21156;-58
2020/12/10 03:08:59;;;;;;;11.57;5.65;;;;;;;-3.26;55.11;101422.86;1695693;83;21240;-57
2020/12/10 03:11:26;;;;;;;10.70;5.70;;;;;;;-3.24;55.02;101431.42;1695424;83;21239;-57
2020/12/10 03:13:55;;;;;;;12.68;6.47;;;;;;;-3.24;55.00;101424.98;1696261;82;21196;-57
2020/12/10 03:16:22;;;;;;;13.98;5.22;;;;;;;-3.21;55.14;101425.38;1639066;85;21342;-58
2020/12/10 03:18:50;;;;;;;9.00;5.28;;;;;;;-3.18;55.06;101433.97;1695446;83;21208;-58
2020/12/10 03:21:17;;;;;;;10.30;5.67;;;;;;;-3.13;55.01;101424.05;1696383;83;21255;-58
2020/12/10 03:23:44;;;;;;;12.70;6.42;;;;;;;-3.09;54.93;101436.91;1695006;82;21215;-58
2020/12/10 03:26:12;;;;;;;10.60;5.25;;;;;;;-3.04;54.74;101434.31;1669003;84;21263;-58
2020/12/10 03:28:39;;;;;;;13.83;7.20;;;;;;;-3.01;54.68;101431.69;1659639;84;21657;-57
2020/12/10 03:31:06;;;;;;;11.48;5.28;;;;;;;-2.96;54.73;101419.63;1696738;84;21741;-57
2020/12/10 03:33:34;;;;;;;9.30;5.00;;;;;;;-2.88;54.64;101411.86;1701672;82;21178;-58
2020/12/10 03:36:03;;;;;;;13.35;5.92;;;;;;;-2.84;54.65;101412.24;1712381;82;21281;-58
2020/12/10 03:38:30;;;;;;;11.22;5.28;;;;;;;-2.82;54.54;101416.97;1712107;83;21576;-57
2020/12/10 03:40:58;;;;;;;12.90;5.60;;;;;;;-2.78;54.45;101409.63;1712034;83;21320;-58
2020/12/10 03:43:26;;;;;;;11.10;5.55;;;;;;;-2.79;54.42;101409.23;1711585;82;21210;-57
2020/12/10 03:45:54;;;;;;;11.83;5.28;;;;;;;-2.78;54.45;101413.48;1713033;82;21185;-58
2020/12/10 03:48:21;;;;;;;10.93;5.55;;;;;;;-2.80;54.47;101412.21;1712914;82;21182;-58
2020/12/10 03:50:50;;;;;;;12.03;5.97;;;;;;;-2.80;54.47;101410.08;1712797;82;21188;-58
2020/12/10 03:53:17;;;;;;;10.53;4.55;;;;;;;-2.72;54.35;101404.84;1712584;82;21322;-58
2020/12/10 03:55:45;;;;;;;11.38;5.03;;;;;;;-2.68;54.30;101406.55;1712642;83;21228;-57
2020/12/10 03:58:13;;;;;;;12.85;5.85;;;;;;;-2.67;54.23;101409.11;1711341;83;21204;-58
2020/12/10 04:00:40;;;;;;;11.00;5.70;;;;;;;-2.64;54.21;101403.05;1712365;82;21171;-58
2020/12/10 04:03:08;;;;;;;12.03;6.37;;;;;;;-2.65;54.27;101400.92;1711843;82;21655;-57
2020/12/10 04:05:35;;;;;;;10.50;5.45;;;;;;;-2.66;54.37;101397.92;1712109;82;21231;-57
2020/12/10 04:08:03;;;;;;;10.28;4.90;;;;;;;-2.65;54.26;101388.48;1711741;83;21176;-58
2020/12/10 04:10:31;;;;;;;11.60;6.12;;;;;;;-2.64;54.29;101384.61;1711198;82;21181;-58
2020/12/10 04:12:59;;;;;;;14.25;4.95;;;;;;;-2.62;54.38;101384.16;1711528;82;21171;-58
2020/12/10 04:15:26;;;;;;;13.13;5.53;;;;;;;-2.57;54.19;101371.23;1710706;83;21220;-58
2020/12/10 04:18:01;;;;;;;10.80;4.90;;;;;;;-2.57;54.36;101375.09;1711539;82;21672;-59
2020/12/10 04:20:29;;;;;;;11.20;6.45;;;;;;;-2.54;54.45;101372.91;1711395;82;21218;-59
2020/12/10 04:22:57;;;;;;;12.33;5.90;;;;;;;-2.50;54.47;101367.72;1712814;82;21162;-59
2020/12/10 04:25:24;;;;;;;11.08;5.03;;;;;;;-2.44;54.40;101369.36;1711014;82;21179;-59
2020/12/10 04:27:52;;;;;;;10.40;5.42;;;;;;;-2.40;54.48;101366.31;1711195;82;21219;-59
2020/12/10 04:30:23;;;;;;;8.85;4.87;;;;;;;-2.36;54.36;101358.98;1684063;83;22122;-59
2020/12/10 04:32:51;;;;;;;10.98;5.28;;;;;;;-2.38;54.47;101369.31;1712712;82;21191;-59
2020/12/10 04:35:19;;;;;;;13.60;5.78;;;;;;;-2.39;54.34;101377.91;1712221;83;21755;-59
2020/12/10 04:37:47;;;;;;;11.93;6.80;;;;;;;-2.38;54.35;101373.18;1674543;84;21220;-59
2020/12/10 04:40:14;;;;;;;15.53;6.40;;;;;;;-2.40;54.49;101376.22;1712273;82;21125;-59
2020/12/10 04:42:43;;;;;;;12.47;5.78;;;;;;;-2.40;54.54;101369.77;1711783;82;21304;-59
2020/12/10 04:45:11;;;;;;;12.18;5.92;;;;;;;-2.37;54.74;101363.72;1711831;82;21196;-59
2020/12/10 04:47:38;;;;;;;15.60;5.95;;;;;;;-2.34;54.84;101364.97;1710920;82;21806;-58
2020/12/10 04:50:15;;;;;;;10.45;4.87;;;;;;;-2.36;54.87;101362.41;1710776;82;21573;-59
2020/12/10 04:52:36;;;;;;;13.13;6.40;;;;;;;-2.37;54.94;101365.00;1710430;83;22110;-59
2020/12/10 04:55:04;;;;;;;10.93;5.62;;;;;;;-2.35;54.83;101359.42;1712081;82;21554;-59
2020/12/10 04:57:31;;;;;;;13.80;5.80;;;;;;;-2.34;54.86;101358.53;1712606;82;21188;-59
2020/12/10 04:59:59;;;;;;;14.30;6.85;;;;;;;-2.31;55.06;101359.34;1711987;82;21200;-58
2020/12/10 05:02:27;;;;;;;13.15;6.45;;;;;;;-2.26;55.22;101358.02;1712717;83;22626;-59
2020/12/10 05:04:55;;;;;;;10.72;5.67;;;;;;;-2.26;55.07;101364.45;1710908;82;21200;-59
2020/12/10 05:07:38;;;;;;;10.58;5.12;;;;;;;-2.25;55.24;101357.16;1689632;82;21208;-58
2020/12/10 05:10:05;;;;;;;11.65;6.33;;;;;;;-2.21;55.33;101362.67;1711464;83;21680;-59
2020/12/10 05:12:33;;;;;;;10.98;5.85;;;;;;;-2.18;55.45;101368.25;1711285;82;22102;-59
2020/12/10 05:15:01;;;;;;;17.20;6.03;;;;;;;-2.16;55.41;101371.66;1711925;82;21487;-59
2020/12/10 05:17:30;;;;;;;10.28;4.95;;;;;;;-2.10;55.44;101368.98;1712110;82;21651;-59
2020/12/10 05:19:58;;;;;;;13.20;5.87;;;;;;;-2.07;55.31;101372.83;1712502;83;21413;-59
2020/12/10 05:22:25;;;;;;;14.28;5.45;;;;;;;-2.03;55.08;101380.09;1712418;83;21211;-60
2020/12/10 05:25:01;;;;;;;11.83;5.22;;;;;;;-2.01;55.13;101379.66;1711649;82;21199;-60
2020/12/10 05:27:29;;;;;;;;;;;;;;;-2.01;54.84;101386.11;1713827;82;21596;-57
2020/12/10 05:29:57;;;;;;;10.88;5.87;;;;;;;-2.03;54.79;101389.11;1711047;83;20318;-57
2020/12/10 05:32:37;;;;;;;13.38;5.25;;;;;;;-2.09;54.85;101383.60;1712973;82;22177;-57
2020/12/10 05:35:21;;;;;;;12.75;5.45;;;;;;;-2.11;54.93;101390.06;1710667;82;21215;-59
2020/12/10 05:37:50;;;;;;;10.68;5.53;;;;;;;-2.09;55.04;101385.73;1711824;82;21632;-59
2020/12/10 05:40:18;;;;;;;10.93;5.17;;;;;;;-2.12;55.07;101389.67;1710624;82;21194;-59
2020/12/10 05:42:49;;;;;;;13.32;5.50;;;;;;;-2.13;55.19;101387.10;1711510;83;21717;-58
2020/12/10 05:45:21;;;;;;;10.28;5.62;;;;;;;-2.10;55.24;101393.48;1709272;82;21520;-58
2020/12/10 05:49:15;;;;;;;11.93;5.72;;;;;;;-2.03;55.42;101383.95;1794722;77;22727;-58
2020/12/10 05:51:48;;;;;;;11.48;5.33;;;;;;;-2.02;55.41;101386.97;1794212;78;21169;-57
2020/12/10 05:54:17;;;;;;;11.40;6.50;;;;;;;-1.99;55.41;101385.20;1794243;78;21218;-57
2020/12/10 05:56:59;;;;;;;15.70;6.37;;;;;;;-2.01;55.40;101380.50;1794155;78;21548;-58
2020/12/10 05:59:28;;;;;;;12.35;6.05;;;;;;;-1.99;55.67;101377.91;1793484;78;22250;-57
2020/12/10 06:02:04;;;;;;;13.30;6.92;;;;;;;-1.99;55.76;101375.33;1795131;78;21544;-57
2020/12/10 06:04:33;;;;;;;15.40;6.75;;;;;;;-1.98;56.05;101375.75;1792667;78;21187;-59
2020/12/10 06:07:01;;;;;;;14.75;6.50;;;;;;;-1.92;56.22;101371.34;1794093;78;22152;-59
2020/12/10 06:09:28;;;;;;;12.98;6.10;;;;;;;-1.89;56.26;101370.02;1793875;78;21179;-59
2020/12/10 06:12:04;;;;;;;10.85;5.58;;;;;;;-1.84;56.41;101368.68;1794538;78;21134;-59
2020/12/10 06:14:32;;;;;;;;;;;;;;;-1.80;56.43;101370.78;1796749;78;21123;-58
2020/12/10 06:17:09;;;;;;;13.03;6.25;;;;;;;-1.79;56.24;101366.89;1791775;78;20662;-58
2020/12/10 06:19:37;;;;;;;10.72;5.45;;;;;;;-1.80;56.44;101363.92;1793743;78;21173;-58
2020/12/10 06:22:30;;;;;;;11.22;5.33;;;;;;;-1.74;56.42;101363.81;1793231;78;21183;-58
2020/12/10 06:25:00;;;;;;;10.95;5.78;;;;;;;-1.70;56.15;101360.75;1791763;78;21178;-58
2020/12/10 06:27:33;;;;;;;11.75;6.25;;;;;;;-1.70;56.05;101367.20;1792539;78;21204;-58
2020/12/10 06:30:17;;;;;;;11.20;5.83;;;;;;;-1.65;55.96;101361.98;1793101;78;21196;-59
2020/12/10 06:32:47;;;;;;;12.33;5.78;;;;;;;-1.59;55.83;101363.20;1793257;78;21196;-58
2020/12/10 06:35:32;;;;;;;16.77;6.33;;;;;;;-1.59;55.67;101370.50;1793967;78;21174;-58
2020/12/10 06:38:04;;;;;;;13.22;7.12;;;;;;;-1.59;55.75;101361.47;1793826;78;21648;-58
2020/12/10 06:40:35;;;;;;;13.55;6.22;;;;;;;-1.57;55.63;101358.87;1793662;78;21258;-58
2020/12/10 06:43:04;;;;;;;16.52;6.00;;;;;;;-1.54;55.66;101353.67;1794625;78;21182;-57
2020/12/10 06:45:42;;;;;;;12.88;6.05;;;;;;;-1.52;55.78;101349.33;1792415;78;21456;-57
2020/12/10 06:48:14;;;;;;;10.63;5.30;;;;;;;-1.51;55.86;101348.02;1790451;78;21200;-57
2020/12/10 06:50:41;;;;;;;11.73;6.00;;;;;;;-1.47;56.02;101346.69;1764975;79;21143;-58
2020/12/10 06:53:23;;;;;;;11.38;5.00;;;;;;;-1.44;55.56;101348.78;1736248;81;21096;-58
2020/12/10 06:55:59;;;;;;;13.30;5.05;;;;;;;-1.49;55.57;101349.29;1788437;77;21714;-59
2020/12/10 06:58:46;;;;;;;10.93;6.35;;;;;;;-1.47;55.62;101345.40;1787221;79;23038;-60
2020/12/10 07:01:37;;;;;;;13.15;6.10;;;;;;;-1.47;55.75;101342.81;1788299;79;22305;-58
2020/12/10 07:07:16;;;;;;;14.40;5.05;;;;;;;-1.51;55.78;101351.89;1787425;77;21207;-58
2020/12/10 07:09:57;;;;;;;11.55;5.00;;;;;;;-1.48;55.87;101354.84;1788546;79;21155;-58
2020/12/10 07:12:32;;;;;;;11.83;6.08;;;;;;;-1.47;55.88;101352.70;1788097;79;22159;-58
2020/12/10 07:15:16;;;;;;;8.93;5.25;;;;;;;-1.45;55.68;101351.38;1788944;79;21127;-58
2020/12/10 07:17:47;;;;;;;14.80;5.97;;;;;;;-1.46;55.49;101345.80;1787794;79;21120;-59
2020/12/10 07:20:15;;;;;;;11.83;6.30;;;;;;;-1.53;55.67;101344.61;1786658;79;21203;-59
2020/12/10 07:22:43;;;;;;;16.32;6.53;;;;;;;-1.49;55.69;101340.25;1786996;79;21199;-59
2020/12/10 07:25:11;;;;;;;18.32;8.05;;;;;;;-1.41;55.54;101344.88;1788214;79;22297;-59
2020/12/10 07:27:45;;;;;;;10.53;6.62;;;;;;;-1.40;55.47;101337.52;1788365;79;22132;-58
2020/12/10 07:30:15;;;;;;;15.58;7.17;;;;;;;-1.40;55.28;101339.26;1789240;79;21147;-59
2020/12/10 07:32:42;;;;;;;18.27;6.65;;;;;;;-1.41;55.24;101331.96;1789105;77;21164;-59
2020/12/10 07:35:11;;;;;;;11.35;6.53;;;;;;;-1.42;55.19;101339.28;1790034;79;21108;-59
2020/12/10 07:37:39;;;;;;;15.53;7.62;;;;;;;-1.44;55.24;101337.61;1787417;79;21196;-59
2020/12/10 07:40:14;;;;;;;25.62;8.20;;;;;;;-1.46;55.31;101342.80;1791131;79;21116;-59
2020/12/10 07:42:42;;;;;;;13.32;7.55;;;;;;;-1.46;55.32;101340.22;1789518;79;21624;-60
2020/12/10 07:45:15;;;;;;;14.03;7.22;;;;;;;-1.43;55.31;101336.72;1788583;79;21227;-59
2020/12/10 07:47:43;;;;;;;12.90;6.20;;;;;;;-1.38;55.32;101335.79;1788601;79;21641;-60
2020/12/10 07:50:23;;;;;;;14.10;6.33;;;;;;;-1.34;55.30;101328.40;1764435;79;21745;-59
2020/12/10 07:52:53;;;;;;;15.60;7.08;;;;;;;-1.31;55.06;101329.65;1787923;79;21188;-59
2020/12/10 07:55:28;;;;;;;11.45;5.62;;;;;;;-1.30;54.97;101322.75;1788318;79;21128;-59
2020/12/10 07:58:13;;;;;;;14.07;6.87;;;;;;;-1.27;55.17;101320.56;1788463;79;21151;-59
2020/12/10 08:00:42;;;;;;;15.58;6.75;;;;;;;-1.24;55.21;101314.91;1788936;79;21191;-60
2020/12/10 08:03:30;;;;;;;12.15;7.28;;;;;;;-1.25;55.23;101306.73;1763734;79;21406;-60
2020/12/10 08:06:05;;;;;;;13.35;6.12;;;;;;;-1.23;55.20;101310.59;1786788;79;21179;-58
2020/12/10 08:08:40;;;;;;;16.27;7.23;;;;;;;-1.21;55.25;101312.70;1789472;79;21159;-58
2020/12/10 08:11:18;;;;;;;13.85;6.08;;;;;;;-1.22;55.10;101313.59;1789661;79;22058;-60
2020/12/10 08:16:46;;;;;;;12.00;6.25;;;;;;;-1.18;55.14;101307.48;1793682;77;23293;-58
2020/12/10 08:22:47;;;;;;;16.70;9.18;;;;;;;-1.26;55.21;101299.02;1817519;75;27958;-59
2020/12/10 08:25:16;;;;;;;12.10;6.22;;;;;;;-1.18;55.12;101298.03;1832760;76;21072;-59
2020/12/10 08:27:43;;;;;;;14.73;7.35;;;;;;;-0.92;54.48;101291.98;1805116;77;21577;-60
2020/12/10 08:30:12;;;;;;;11.57;6.25;;;;;;;-0.91;54.28;101286.78;1795874;78;22400;-60
2020/12/10 08:32:59;;;;;;;12.05;6.30;;;;;;;-0.91;54.27;101288.52;1745628;78;21202;-59
2020/12/10 08:35:50;;;;;;;13.55;6.83;;;;;;;-0.94;54.11;101289.00;1814106;76;21185;-59
2020/12/10 08:38:23;;;;;;;12.90;6.72;;;;;;;-1.00;54.24;101291.68;1812665;76;21629;-58
2020/12/10 08:40:58;;;;;;;14.50;6.70;;;;;;;-1.03;54.34;101281.39;1805531;77;21647;-58
2020/12/10 08:43:26;;;;;;;14.55;6.65;;;;;;;-1.05;54.18;101288.33;1840091;76;21206;-58
2020/12/10 08:45:54;;;;;;;12.35;6.22;;;;;;;-1.08;54.41;101288.38;1814968;77;21814;-58
2020/12/10 08:48:26;;;;;;;13.93;6.90;;;;;;;-1.06;54.44;101289.64;1836749;75;21175;-58
2020/12/10 08:50:56;;;;;;;14.55;7.72;;;;;;;-1.06;54.54;101281.47;1814361;76;21168;-58
2020/12/10 08:53:24;;;;;;;15.18;7.53;;;;;;;-1.07;54.75;101278.47;1804298;78;21384;-58
2020/12/10 08:55:57;;;;;;;13.83;6.45;;;;;;;-1.09;54.64;101271.61;1772941;78;21152;-58
2020/12/10 08:58:30;;;;;;;16.57;8.70;;;;;;;-1.10;54.84;101263.47;1785344;78;21696;-59
2020/12/10 09:01:00;;;;;;;18.75;7.55;;;;;;;-1.13;55.04;101269.52;1785984;78;21088;-59
2020/12/10 09:03:29;;;;;;;13.38;7.37;;;;;;;-1.13;55.14;101272.11;1812755;78;21155;-58
2020/12/10 09:05:58;;;;;;;14.15;8.10;;;;;;;-1.18;55.22;101263.59;1806210;77;21667;-58
2020/12/10 09:08:27;;;;;;;16.10;7.97;;;;;;;-1.18;55.55;101263.59;1803583;77;21116;-59
2020/12/10 09:10:56;;;;;;;17.30;7.70;;;;;;;-1.13;55.41;101260.48;1819914;77;21610;-58
2020/12/10 09:13:25;;;;;;;14.68;7.33;;;;;;;-1.06;55.45;101266.39;1820046;77;21730;-57
2020/12/10 09:15:53;;;;;;;13.10;6.67;;;;;;;-1.04;55.31;101259.05;1819141;77;21147;-58
2020/12/10 09:18:20;;;;;;;17.65;7.80;;;;;;;-1.03;55.44;101248.27;1771812;78;21374;-58
2020/12/10 09:20:48;;;;;;;13.10;6.85;;;;;;;-1.01;55.47;101251.66;1791318;78;21754;-57
2020/12/10 09:23:17;;;;;;;13.60;7.15;;;;;;;-0.98;55.67;101255.03;1759680;79;21694;-58
2020/12/10 09:25:44;;;;;;;15.72;8.25;;;;;;;-0.96;55.92;101253.30;1759363;79;21207;-58
2020/12/10 09:28:12;;;;;;;21.25;8.25;;;;;;;-0.94;55.81;101245.52;1757736;79;21698;-58
2020/12/10 09:30:40;;;;;;;12.88;7.17;;;;;;;-0.90;55.83;101245.87;1757475;79;21229;-58
2020/12/10 09:33:09;;;;;;;20.12;7.83;;;;;;;-0.88;55.77;101248.42;1775705;79;21538;-59
2020/12/10 09:35:36;;;;;;;15.53;7.37;;;;;;;-0.86;56.08;101250.08;1749128;80;21159;-58
2020/12/10 09:38:06;;;;;;;12.10;6.37;;;;;;;-0.86;56.13;101248.79;1758336;79;21191;-58
2020/12/10 09:40:33;;;;;;;14.13;9.20;;;;;;;-0.84;56.39;101249.64;1759069;79;21190;-58
2020/12/10 09:43:00;;;;;;;16.32;9.18;;;;;;;-0.78;56.27;101243.48;1775468;79;21377;-59
2020/12/10 09:45:28;;;;;;;18.12;8.68;;;;;;;-0.75;56.30;101236.97;1771597;79;21647;-58
2020/12/10 09:47:57;;;;;;;15.08;8.05;;;;;;;-0.75;56.43;101235.23;1749362;80;21172;-59
2020/12/10 09:50:28;;;;;;;14.35;8.43;;;;;;;-0.73;56.57;101239.53;1771157;79;21666;-59
2020/12/10 09:53:00;;;;;;;14.15;7.85;;;;;;;-0.71;56.50;101243.77;1749249;80;21219;-59
2020/12/10 09:55:38;;;;;;;14.43;7.37;;;;;;;-0.67;56.43;101260.07;1748796;80;22113;-59
2020/12/10 09:57:56;;;;;;;15.72;7.75;;;;;;;-0.68;56.23;101260.52;1746699;80;21889;-59
2020/12/10 10:00:23;;;;;;;15.63;7.65;;;;;;;-0.66;56.32;101254.03;1748404;80;21585;-59
2020/12/10 10:02:51;;;;;;;16.00;7.87;;;;;;;-0.67;56.43;101253.19;1747443;80;21212;-57
2020/12/10 10:05:20;;;;;;;14.40;7.62;;;;;;;-0.65;56.50;101244.11;1748146;80;21685;-58
2020/12/10 10:07:48;;;;;;;17.02;7.80;;;;;;;-0.58;56.46;101240.06;1748271;80;21359;-57
2020/12/10 10:10:16;;;;;;;13.55;7.72;;;;;;;-0.60;56.47;101243.13;1759631;80;21179;-57
2020/12/10 10:12:43;;;;;;;14.95;8.15;;;;;;;-0.62;56.52;101244.06;1758820;80;21714;-57
2020/12/10 10:15:11;;;;;;;14.60;7.35;;;;;;;-0.61;56.74;101243.16;1748943;80;21195;-58
2020/12/10 10:17:38;;;;;;;13.28;7.33;;;;;;;-0.62;56.85;101241.47;1748456;81;21512;-58
2020/12/10 10:20:06;;;;;;;14.33;7.58;;;;;;;-0.57;56.88;101241.78;1747693;80;21457;-59
2020/12/10 10:22:38;;;;;;;13.08;7.80;;;;;;;-0.56;56.80;101232.28;1769245;78;21763;-59
2020/12/10 10:25:06;;;;;;;15.70;8.13;;;;;;;-0.52;56.82;101225.31;1814602;77;22207;-59
2020/12/10 10:27:34;;;;;;;14.78;8.43;;;;;;;-0.48;56.86;101221.80;1815479;77;21144;-59
2020/12/10 10:30:04;;;;;;;14.53;7.67;;;;;;;-0.46;56.95;101226.48;1816961;77;21596;-58
2020/12/10 10:32:32;;;;;;;13.48;7.33;;;;;;;-0.48;56.86;101221.34;1815655;77;22320;-60
2020/12/10 10:35:00;;;;;;;15.75;8.35;;;;;;;-0.46;56.96;101229.08;1815427;77;21679;-57
2020/12/10 10:37:28;;;;;;;15.43;8.70;;;;;;;-0.43;56.94;101223.84;1815908;77;21423;-58
2020/12/10 10:39:55;;;;;;;18.20;7.70;;;;;;;-0.44;57.04;101214.38;1809721;78;21277;-58
2020/12/10 10:42:22;;;;;;;23.00;9.63;;;;;;;-0.45;57.25;101213.98;1776565;78;21171;-58
2020/12/10 10:44:50;;;;;;;17.02;8.45;;;;;;;-0.41;57.37;101211.28;1816025;77;21260;-58
2020/12/10 10:47:18;;;;;;;23.60;9.25;;;;;;;-0.38;57.34;101216.84;1813814;77;21183;-60
2020/12/10 10:49:46;;;;;;;17.37;9.78;;;;;;;-0.35;57.30;101215.48;1767735;80;21136;-60
2020/12/10 10:52:14;;;;;;;21.37;8.03;;;;;;;-0.31;57.32;101211.09;1814657;77;21186;-60
2020/12/10 10:54:44;;;;;;;22.52;8.50;;;;;;;-0.31;57.40;101207.22;1814831;77;21775;-60
2020/12/10 10:57:11;;;;;;;18.35;9.33;;;;;;;-0.35;57.40;101201.69;1815523;77;21913;-60
2020/12/10 10:59:39;;;;;;;13.83;8.55;;;;;;;-0.39;57.45;101206.08;1816331;77;21209;-60
2020/12/10 11:02:06;;;;;;;22.93;9.88;;;;;;;-0.40;57.60;101209.56;1783549;78;21128;-60
2020/12/10 11:04:34;;;;;;;14.78;9.05;;;;;;;-0.39;57.87;101209.95;1814695;77;21179;-60
2020/12/10 11:07:01;;;;;;;20.70;10.65;;;;;;;-0.37;57.82;101214.64;1768326;78;21163;-59
2020/12/10 11:09:29;;;;;;;23.15;10.13;;;;;;;-0.38;58.04;101218.13;1795811;78;22195;-59
2020/12/10 11:11:56;;;;;;;22.85;9.83;;;;;;;-0.40;58.09;101224.63;1768910;78;21715;-60
2020/12/10 11:14:24;;;;;;;15.10;9.05;;;;;;;-0.41;58.19;101224.66;1770124;78;21135;-60
2020/12/10 11:16:56;;;;;;;19.10;10.25;;;;;;;-0.44;58.37;101211.37;1768954;78;22356;-60
2020/12/10 11:19:22;;;;;;;21.30;11.05;;;;;;;-0.44;58.51;101215.66;1775005;78;21167;-60
2020/12/10 11:21:51;;;;;;;16.87;9.43;;;;;;;-0.50;58.75;101214.52;1783280;78;21200;-58
2020/12/10 11:24:18;;;;;;;19.32;10.08;;;;;;;-0.52;59.14;101210.67;1781070;80;21166;-58
2020/12/10 11:26:52;;;;;;;20.15;10.93;;;;;;;-0.50;59.14;101208.90;1781066;78;21483;-58
2020/12/10 11:29:20;;;;;;;17.77;10.28;;;;;;;-0.48;59.38;101203.25;1780953;78;21150;-58
2020/12/10 11:31:48;;;;;;;22.50;11.85;;;;;;;-0.49;59.50;101198.11;1780616;78;21679;-58
2020/12/10 11:34:16;;;;;;;19.95;10.32;;;;;;;-0.49;59.72;101196.81;1780482;78;21810;-58
2020/12/10 11:36:46;;;;;;;19.17;11.30;;;;;;;-0.48;59.87;101188.19;1800440;79;21163;-58
2020/12/10 11:39:13;;;;;;;20.57;10.20;;;;;;;-0.46;59.89;101186.41;1796044;78;21808;-58